Tunker, Indiana
Current Conditions -  °F | °C
As of 9:35 AM on Saturday 25 Oct 2014 (Local Time) from KASW Reporting Station
Haze Haze  
Wind Chill: 54°   Ceiling: Unl
Heat Index: 54°   Visibility: 4mi
Dew Point: 52°   Wind: 6mph
Humidity: 94%   Direction: 250°WSW
Pressure: 29.92"   Gusts: NA
Location:  41.056°N, 85.6112°W
Report Text: KASW 251335Z AUTO 25005KT 4SM BR CLR 12/11 A2992 RMK AO2
Loading
Personal Weather Stations






























Interactive Weather Map New forecast layout! Learn more

10-Day Weather Forecast

Advertisements
Track Severe Weather on mobile